createdAt,value
2018-01-10T00:01:32.991Z,12.40
2018-01-10T00:04:00.704Z,12.53
2018-01-10T00:06:28.403Z,13.57
2018-01-10T00:08:56.185Z,11.80
2018-01-10T00:11:24.670Z,13.00
2018-01-10T00:13:52.321Z,12.60
2018-01-10T00:16:20.061Z,12.00
2018-01-10T00:18:47.723Z,10.80
2018-01-10T00:21:15.414Z,12.00
2018-01-10T00:23:43.826Z,11.33
2018-01-10T00:26:11.539Z,10.80
2018-01-10T00:28:39.194Z,11.27
2018-01-10T00:31:07.064Z,10.03
2018-01-10T00:33:34.727Z,11.90
2018-01-10T00:36:02.423Z,11.83
2018-01-10T00:38:30.086Z,10.57
2018-01-10T00:40:57.782Z,11.97
2018-01-10T00:43:25.437Z,11.93
2018-01-10T00:45:53.151Z,10.97
2018-01-10T00:48:21.572Z,11.53
2018-01-10T00:50:49.282Z,11.17
2018-01-10T00:53:17.702Z,11.40
2018-01-10T00:55:45.408Z,11.57
2018-01-10T00:58:13.062Z,12.20
2018-01-10T01:00:40.793Z,12.53
2018-01-10T01:03:08.450Z,12.37
2018-01-10T01:05:36.171Z,11.33
2018-01-10T01:08:03.871Z,12.07
2018-01-10T01:10:31.565Z,11.80
2018-01-10T01:13:00.000Z,10.87
2018-01-10T01:15:27.743Z,11.23
2018-01-10T01:17:55.394Z,12.30
2018-01-10T01:20:23.125Z,10.83
2018-01-10T01:22:51.548Z,11.00
2018-01-10T01:25:19.269Z,11.07
2018-01-10T01:27:47.706Z,10.70
2018-01-10T01:30:15.404Z,11.53
2018-01-10T01:32:43.826Z,11.27
2018-01-10T01:35:11.527Z,10.90
2018-01-10T01:37:39.188Z,10.03
2018-01-10T01:40:06.911Z,10.73
2018-01-10T01:42:34.576Z,10.70
2018-01-10T01:45:02.391Z,11.03
2018-01-10T01:47:30.875Z,12.03
2018-01-10T01:49:59.351Z,11.30
2018-01-10T01:52:27.819Z,11.40
2018-01-10T01:54:56.243Z,10.90
2018-01-10T01:57:23.934Z,11.30
2018-01-10T01:59:51.662Z,11.20
2018-01-10T02:02:19.373Z,11.30
2018-01-10T02:04:47.811Z,11.40
2018-01-10T02:07:15.514Z,11.23
2018-01-10T02:09:43.961Z,11.63
2018-01-10T02:12:11.669Z,11.63
2018-01-10T02:14:39.327Z,11.07
2018-01-10T02:17:07.027Z,11.50
2018-01-10T02:19:34.755Z,11.83
2018-01-10T02:22:02.450Z,11.27
2018-01-10T02:24:30.121Z,13.10
2018-01-10T02:26:57.833Z,11.23
2018-01-10T02:29:25.605Z,12.33
2018-01-10T02:31:53.336Z,11.10
2018-01-10T02:34:21.759Z,10.00
2018-01-10T02:36:49.538Z,10.90
2018-01-10T02:39:17.240Z,11.10
2018-01-10T02:41:45.708Z,10.53
2018-01-10T02:44:14.130Z,10.80
2018-01-10T02:46:41.838Z,11.37
2018-01-10T02:49:09.616Z,11.27
2018-01-10T02:51:37.319Z,11.53
2018-01-10T02:54:05.011Z,11.53
2018-01-10T02:56:32.719Z,11.10
2018-01-10T02:59:00.374Z,12.30
2018-01-10T03:01:28.079Z,10.53
2018-01-10T03:03:55.738Z,11.50
2018-01-10T03:06:23.439Z,11.10
2018-01-10T03:08:51.863Z,11.30
2018-01-10T03:11:19.582Z,11.40
2018-01-10T03:13:47.405Z,11.73
2018-01-10T03:16:15.111Z,11.10
2018-01-10T03:18:42.776Z,10.50
2018-01-10T03:21:12.767Z,11.60
2018-01-10T03:23:40.473Z,11.27
2018-01-10T03:26:08.186Z,12.67
2018-01-10T03:28:36.616Z,12.57
2018-01-10T03:31:04.280Z,11.73
2018-01-10T03:33:31.979Z,12.07
2018-01-10T03:36:00.409Z,11.03
2018-01-10T03:38:28.123Z,10.53
2018-01-10T03:40:56.731Z,10.60
2018-01-10T03:43:24.438Z,10.27
2018-01-10T03:45:52.835Z,10.23
2018-01-10T03:48:20.547Z,9.80
2018-01-10T03:50:48.210Z,9.60
2018-01-10T03:53:16.035Z,10.47
2018-01-10T03:55:43.699Z,10.10
2018-01-10T03:58:11.402Z,10.80
2018-01-10T04:00:39.087Z,10.00
2018-01-10T04:03:06.787Z,9.90
2018-01-10T04:05:34.447Z,10.30
2018-01-10T04:08:02.146Z,10.33
2018-01-10T04:10:29.811Z,10.03
2018-01-10T04:12:57.516Z,9.80
2018-01-10T04:15:25.194Z,10.07
2018-01-10T04:17:52.902Z,10.47
2018-01-10T04:20:20.664Z,10.07
2018-01-10T04:22:48.530Z,9.63
2018-01-10T04:25:16.564Z,9.83
2018-01-10T04:27:44.239Z,9.23
2018-01-10T04:30:11.990Z,10.40
2018-01-10T04:32:39.650Z,9.23
2018-01-10T04:35:07.343Z,9.33
2018-01-10T04:37:35.764Z,9.13
2018-01-10T04:40:03.493Z,7.63
2018-01-10T04:42:31.923Z,9.20
2018-01-10T04:45:00.382Z,7.80
2018-01-10T04:47:28.044Z,7.63
2018-01-10T04:49:56.035Z,7.90
2018-01-10T04:52:23.688Z,7.57
2018-01-10T04:54:51.506Z,6.70
2018-01-10T04:57:19.155Z,6.60
2018-01-10T04:59:46.857Z,7.07
2018-01-10T05:02:14.512Z,6.13
2018-01-10T05:04:42.205Z,6.77
2018-01-10T05:07:09.857Z,6.93
2018-01-10T05:09:37.566Z,6.93
2018-01-10T05:12:05.242Z,8.13
2018-01-10T05:14:32.941Z,6.90
2018-01-10T05:17:00.718Z,6.70
2018-01-10T05:19:29.205Z,6.63
2018-01-10T05:21:57.627Z,7.70
2018-01-10T05:24:25.326Z,7.63
2018-01-10T05:26:55.861Z,6.07
2018-01-10T05:29:23.591Z,6.83
2018-01-10T05:31:52.146Z,6.37
2018-01-10T05:34:19.810Z,6.27
2018-01-10T05:36:47.522Z,6.13
2018-01-10T05:39:15.958Z,6.40
2018-01-10T05:41:43.900Z,5.90
2018-01-10T05:44:11.658Z,6.73
2018-01-10T05:46:39.363Z,5.73
2018-01-10T05:49:07.254Z,5.73
2018-01-10T05:51:35.714Z,6.20
2018-01-10T05:54:03.442Z,5.87
2018-01-10T05:56:31.328Z,6.67
2018-01-10T05:58:59.118Z,6.53
2018-01-10T06:01:27.602Z,5.67
2018-01-10T06:03:56.020Z,5.60
2018-01-10T06:06:23.812Z,6.77
2018-01-10T06:08:52.330Z,6.20
2018-01-10T06:11:20.039Z,6.03
2018-01-10T06:13:47.703Z,6.37
2018-01-10T06:16:15.408Z,6.17
2018-01-10T06:18:43.067Z,6.10
2018-01-10T06:21:11.695Z,6.80
2018-01-10T06:23:39.354Z,5.50
2018-01-10T06:26:08.730Z,6.70
2018-01-10T06:28:36.523Z,6.53
2018-01-10T06:31:06.748Z,5.23
2018-01-10T06:33:35.250Z,6.03
2018-01-10T06:36:03.676Z,7.30
2018-01-10T06:38:31.381Z,6.00
2018-01-10T06:40:59.049Z,6.30
2018-01-10T06:43:27.733Z,6.70
2018-01-10T06:45:55.421Z,5.50
2018-01-10T06:48:23.127Z,6.40
2018-01-10T06:50:50.791Z,6.50
2018-01-10T06:53:18.486Z,5.83
2018-01-10T06:55:46.143Z,6.27
2018-01-10T06:58:14.607Z,6.70
2018-01-10T07:00:43.044Z,6.00
2018-01-10T07:03:10.759Z,7.33
2018-01-10T07:05:38.598Z,7.03
2018-01-10T07:08:06.299Z,6.23
2018-01-10T07:10:34.319Z,6.13
2018-01-10T07:13:02.023Z,6.30
2018-01-10T07:15:29.727Z,6.03
2018-01-10T07:17:57.560Z,5.83
2018-01-10T07:20:25.221Z,6.90
2018-01-10T07:22:53.684Z,6.83
2018-01-10T07:25:21.343Z,6.97
2018-01-10T07:27:49.463Z,6.83
2018-01-10T07:30:17.192Z,5.93
2018-01-10T07:32:44.887Z,5.70
2018-01-10T07:35:12.613Z,5.63
2018-01-10T07:37:40.319Z,6.73
2018-01-10T07:40:07.976Z,6.20
2018-01-10T07:42:35.673Z,6.10
2018-01-10T07:45:03.350Z,6.23
2018-01-10T07:47:31.729Z,5.53
2018-01-10T07:49:59.381Z,5.20
2018-01-10T07:52:27.095Z,5.07
2018-01-10T07:54:55.531Z,4.53
2018-01-10T07:57:23.247Z,5.20
2018-01-10T07:59:51.987Z,4.00
2018-01-10T08:02:19.698Z,4.27
2018-01-10T08:04:47.363Z,4.60
2018-01-10T08:07:15.102Z,4.30
2018-01-10T08:09:43.538Z,4.83
2018-01-10T08:12:11.231Z,4.57
2018-01-10T08:14:38.887Z,4.57
2018-01-10T08:17:07.382Z,4.07
2018-01-10T08:19:35.112Z,4.23
2018-01-10T08:22:02.817Z,4.70
2018-01-10T08:24:30.531Z,4.73
2018-01-10T08:26:58.190Z,4.33
2018-01-10T08:29:25.880Z,4.40
2018-01-10T08:31:54.324Z,4.60
2018-01-10T08:34:24.219Z,4.83
2018-01-10T08:36:51.902Z,4.53
2018-01-10T08:39:20.054Z,5.10
2018-01-10T08:41:47.720Z,4.40
2018-01-10T08:44:16.183Z,5.30
2018-01-10T08:46:43.848Z,6.57
2018-01-10T08:49:12.338Z,5.53
2018-01-10T08:51:40.681Z,6.00
2018-01-10T08:54:08.386Z,7.30
2018-01-10T08:56:36.239Z,7.67
2018-01-10T08:59:03.943Z,8.07
2018-01-10T09:01:32.361Z,7.10
2018-01-10T09:04:00.830Z,7.00
2018-01-10T09:06:28.589Z,8.50
2018-01-10T09:08:56.290Z,7.70
2018-01-10T09:11:23.938Z,7.30
2018-01-10T09:13:51.622Z,8.83
2018-01-10T09:16:20.050Z,9.90
2018-01-10T09:18:47.758Z,9.47
2018-01-10T09:21:16.205Z,8.47
2018-01-10T09:23:43.916Z,9.17
2018-01-10T09:26:11.676Z,8.37
2018-01-10T09:28:39.370Z,8.73
2018-01-10T09:31:07.185Z,7.90
2018-01-10T09:33:35.654Z,7.60
2018-01-10T09:36:03.467Z,7.80
2018-01-10T09:38:31.207Z,7.10
2018-01-10T09:40:58.899Z,6.90
2018-01-10T09:43:26.827Z,6.70
2018-01-10T09:45:54.510Z,6.67
2018-01-10T09:48:22.210Z,7.50
2018-01-10T09:50:49.871Z,6.30
2018-01-10T09:53:17.570Z,8.40
2018-01-10T09:55:45.235Z,35.17
2018-01-10T09:58:13.898Z,12.50
2018-01-10T10:00:41.634Z,7.37
2018-01-10T10:03:10.091Z,16.93
2018-01-10T10:05:37.826Z,83.20
2018-01-10T10:08:05.638Z,73.15
2018-01-10T10:10:33.388Z,15.07
2018-01-10T10:13:01.086Z,11.47
2018-01-10T10:15:28.734Z,8.80
2018-01-10T10:17:57.206Z,8.80
2018-01-10T10:20:24.886Z,8.60
2018-01-10T10:22:52.589Z,8.30
2018-01-10T10:25:20.248Z,8.70
2018-01-10T10:27:47.951Z,8.77
2018-01-10T10:30:19.318Z,9.30
2018-01-10T10:32:47.034Z,7.73
2018-01-10T10:35:14.696Z,7.27
2018-01-10T10:37:42.386Z,7.60
2018-01-10T10:40:10.822Z,6.87
2018-01-10T10:42:38.534Z,8.60
2018-01-10T10:45:06.190Z,8.20
2018-01-10T10:47:33.846Z,7.13
2018-01-10T10:50:01.548Z,7.80
2018-01-10T10:52:29.209Z,6.87
2018-01-10T10:54:57.952Z,6.00
2018-01-10T10:57:25.631Z,6.30
2018-01-10T10:59:53.330Z,5.87
2018-01-10T11:02:20.993Z,6.10
2018-01-10T11:04:48.686Z,6.57
2018-01-10T11:07:17.336Z,5.43
2018-01-10T11:09:45.047Z,6.20
2018-01-10T11:12:12.707Z,5.17
2018-01-10T11:14:40.561Z,5.30
2018-01-10T11:17:08.251Z,7.40
2018-01-10T11:19:35.958Z,5.83
2018-01-10T11:22:04.401Z,5.80
2018-01-10T11:24:32.099Z,5.63
2018-01-10T11:27:00.551Z,5.33
2018-01-10T11:29:28.258Z,5.30
2018-01-10T11:31:55.922Z,6.00
2018-01-10T11:34:23.618Z,5.00
2018-01-10T11:36:51.336Z,4.63
2018-01-10T11:39:19.038Z,5.30
2018-01-10T11:41:46.735Z,7.13
2018-01-10T11:44:15.192Z,5.77
2018-01-10T11:46:42.952Z,5.30
2018-01-10T11:49:10.654Z,6.00
2018-01-10T11:51:38.318Z,12.07
2018-01-10T11:54:06.031Z,7.37
2018-01-10T11:56:33.707Z,7.00
2018-01-10T11:59:02.199Z,7.20
2018-01-10T12:01:30.646Z,8.97
2018-01-10T12:03:58.350Z,5.33
2018-01-10T12:06:26.020Z,5.27
2018-01-10T12:08:53.732Z,4.83
2018-01-10T12:11:21.486Z,4.60
2018-01-10T12:13:49.194Z,12.57
2018-01-10T12:16:16.858Z,6.57
2018-01-10T12:18:45.415Z,5.67
2018-01-10T12:21:13.834Z,7.17
2018-01-10T12:23:41.551Z,4.40
2018-01-10T12:26:09.981Z,4.10
2018-01-10T12:28:37.694Z,4.33
2018-01-10T12:31:06.123Z,4.37
2018-01-10T12:33:33.825Z,4.03
2018-01-10T12:36:01.498Z,4.60
2018-01-10T12:38:29.204Z,4.80
2018-01-10T12:40:56.875Z,4.67
2018-01-10T12:43:24.583Z,4.70
2018-01-10T12:45:52.280Z,4.40
2018-01-10T12:48:19.947Z,4.57
2018-01-10T12:50:47.651Z,4.57
2018-01-10T12:53:16.075Z,3.90
2018-01-10T12:55:43.850Z,3.97
2018-01-10T12:58:11.514Z,4.70
2018-01-10T13:00:39.418Z,4.63
2018-01-10T13:03:07.091Z,3.93
2018-01-10T13:05:34.949Z,7.03
2018-01-10T13:08:02.633Z,4.30
2018-01-10T13:10:30.330Z,5.37
2018-01-10T13:12:58.916Z,5.73
2018-01-10T13:15:26.801Z,3.80
2018-01-10T13:17:54.475Z,7.67
2018-01-10T13:20:22.207Z,6.83
2018-01-10T13:22:50.641Z,8.23
2018-01-10T13:25:18.342Z,4.90
2018-01-10T13:27:46.774Z,3.57
2018-01-10T13:30:14.502Z,3.70
2018-01-10T13:32:42.160Z,4.67
2018-01-10T13:35:09.871Z,47.77
2018-01-10T13:37:37.614Z,5.93
2018-01-10T13:40:05.324Z,4.83
2018-01-10T13:42:33.782Z,4.40
2018-01-10T13:45:01.495Z,4.70
2018-01-10T13:47:29.158Z,4.20
2018-01-10T13:49:56.862Z,4.70
2018-01-10T13:52:24.604Z,4.67
2018-01-10T13:54:52.350Z,4.73
2018-01-10T13:57:20.011Z,4.37
2018-01-10T13:59:47.714Z,4.77
2018-01-10T14:02:15.392Z,4.43
2018-01-10T14:04:43.864Z,5.00
2018-01-10T14:07:12.287Z,4.93
2018-01-10T14:09:39.987Z,5.33
2018-01-10T14:12:07.706Z,5.27
2018-01-10T14:14:35.683Z,5.17
2018-01-10T14:17:03.362Z,5.83
2018-01-10T14:19:31.062Z,5.83
2018-01-10T14:21:58.710Z,5.97
2018-01-10T14:24:27.190Z,5.10
2018-01-10T14:26:55.617Z,5.10
2018-01-10T14:29:23.314Z,4.97
2018-01-10T14:31:50.977Z,5.30
2018-01-10T14:34:19.435Z,4.53
2018-01-10T14:36:47.100Z,4.93
2018-01-10T14:39:14.795Z,4.23
2018-01-10T14:41:42.459Z,4.83
2018-01-10T14:44:10.165Z,6.40
2018-01-10T14:46:37.824Z,6.50
2018-01-10T14:49:05.523Z,6.77
2018-01-10T14:51:33.934Z,5.93
2018-01-10T14:54:01.626Z,4.83
2018-01-10T14:56:29.274Z,4.33
2018-01-10T14:58:56.963Z,4.70
2018-01-10T15:01:24.626Z,4.10
2018-01-10T15:03:53.050Z,4.87
2018-01-10T15:06:20.742Z,4.47
2018-01-10T15:08:48.410Z,4.70
2018-01-10T15:11:16.098Z,4.57
2018-01-10T15:13:43.759Z,4.30
2018-01-10T15:16:12.230Z,4.13
2018-01-10T15:18:40.678Z,4.57
2018-01-10T15:21:08.441Z,4.87
2018-01-10T15:23:36.082Z,4.60
2018-01-10T15:26:03.787Z,5.37
2018-01-10T15:28:32.206Z,4.67
2018-01-10T15:30:59.907Z,4.20
2018-01-10T15:33:27.551Z,4.20
2018-01-10T15:35:55.626Z,4.80
2018-01-10T15:38:23.279Z,4.87
2018-01-10T15:40:50.982Z,5.53
2018-01-10T15:43:18.631Z,5.03
2018-01-10T15:45:47.099Z,4.40
2018-01-10T15:48:15.539Z,4.63
2018-01-10T15:50:43.234Z,7.83
2018-01-10T15:53:10.888Z,5.37
2018-01-10T15:55:39.362Z,5.60
2018-01-10T15:58:07.018Z,6.03
2018-01-10T16:00:34.714Z,5.30
2018-01-10T16:03:02.372Z,5.40
2018-01-10T16:05:30.066Z,6.30
2018-01-10T16:07:57.714Z,7.20
2018-01-10T16:10:25.456Z,6.40
2018-01-10T16:12:53.146Z,7.23
2018-01-10T16:15:20.854Z,6.20
2018-01-10T16:17:49.276Z,8.63
2018-01-10T16:20:16.983Z,9.70
2018-01-10T16:22:44.646Z,10.40
2018-01-10T16:25:13.192Z,11.53
2018-01-10T16:27:40.851Z,9.47
2018-01-10T16:30:08.659Z,7.47
2018-01-10T16:32:36.335Z,7.63
2018-01-10T16:35:04.178Z,8.00
2018-01-10T16:37:32.609Z,6.53
2018-01-10T16:40:00.331Z,6.07
2018-01-10T16:42:28.059Z,6.13
2018-01-10T16:44:55.855Z,6.70
2018-01-10T16:47:23.630Z,6.23
2018-01-10T16:49:51.339Z,8.30
2018-01-10T16:52:19.087Z,7.03
2018-01-10T16:54:46.830Z,6.17
2018-01-10T16:57:14.514Z,6.27
2018-01-10T16:59:42.454Z,5.20
2018-01-10T17:02:10.207Z,5.00
2018-01-10T17:04:37.911Z,6.87
2018-01-10T17:07:05.659Z,7.57
2018-01-10T17:09:33.391Z,5.80
2018-01-10T17:12:01.120Z,5.20
2018-01-10T17:14:32.341Z,5.53
2018-01-10T17:17:00.786Z,4.70
2018-01-10T17:19:28.573Z,4.47
2018-01-10T17:21:56.222Z,5.40
2018-01-10T17:24:23.886Z,4.27
2018-01-10T17:26:51.616Z,5.13
2018-01-10T17:29:19.393Z,7.23
2018-01-10T17:31:47.142Z,6.80
2018-01-10T17:34:14.847Z,6.93
2018-01-10T17:36:43.322Z,3.87
2018-01-10T17:39:10.983Z,5.40
2018-01-10T17:41:38.779Z,4.77
2018-01-10T17:44:06.446Z,5.10
2018-01-10T17:46:34.274Z,4.17
2018-01-10T17:49:02.851Z,5.10
2018-01-10T17:51:31.658Z,4.90
2018-01-10T17:53:59.746Z,4.97
2018-01-10T17:56:27.462Z,4.10
2018-01-10T17:58:55.185Z,3.27
2018-01-10T18:01:22.912Z,3.00
2018-01-10T18:03:50.603Z,3.17
2018-01-10T18:06:19.277Z,2.70
2018-01-10T18:08:47.571Z,2.63
2018-01-10T18:11:17.029Z,2.77
2018-01-10T18:13:45.772Z,2.57
2018-01-10T18:16:17.424Z,2.40
2018-01-10T18:18:49.757Z,1.97
2018-01-10T18:21:18.866Z,2.60
2018-01-10T18:23:50.738Z,2.57
2018-01-10T18:26:22.227Z,2.30
2018-01-10T18:28:52.706Z,2.10
2018-01-10T18:31:23.448Z,2.00
2018-01-10T18:33:53.526Z,2.10
2018-01-10T18:36:22.187Z,1.70
2018-01-10T18:38:50.615Z,1.70
2018-01-10T18:41:18.501Z,1.73
2018-01-10T18:43:47.187Z,1.57
2018-01-10T18:46:16.786Z,2.60
2018-01-10T18:48:45.654Z,1.70
2018-01-10T18:51:13.336Z,2.03
2018-01-10T18:53:41.051Z,1.47
2018-01-10T18:56:08.984Z,1.90
2018-01-10T18:58:37.838Z,1.57
2018-01-10T19:01:05.564Z,1.70
2018-01-10T19:03:33.547Z,1.50
2018-01-10T19:06:01.291Z,1.93
2018-01-10T19:08:29.086Z,1.43
2018-01-10T19:10:56.892Z,1.63
2018-01-10T19:13:24.582Z,1.70
2018-01-10T19:15:52.292Z,1.43
2018-01-10T19:18:20.752Z,1.73
2018-01-10T19:20:48.505Z,1.40
2018-01-10T19:23:16.341Z,1.50
2018-01-10T19:25:44.181Z,1.57
2018-01-10T19:28:11.964Z,1.50
2018-01-10T19:30:39.739Z,1.70
2018-01-10T19:33:07.411Z,1.87
2018-01-10T19:35:35.467Z,1.70
2018-01-10T19:38:03.822Z,1.73
2018-01-10T19:40:31.588Z,1.53
2018-01-10T19:42:59.238Z,1.90
2018-01-10T19:45:26.962Z,2.20
2018-01-10T19:47:55.390Z,1.53
2018-01-10T19:50:23.115Z,2.27
2018-01-10T19:52:51.598Z,1.80
2018-01-10T19:55:20.081Z,2.10
2018-01-10T19:57:47.730Z,2.20
2018-01-10T20:00:16.206Z,2.40
2018-01-10T20:02:45.533Z,1.53
2018-01-10T20:05:13.289Z,2.20
2018-01-10T20:07:40.944Z,2.20
2018-01-10T20:10:08.655Z,1.67
2018-01-10T20:12:36.315Z,1.83
2018-01-10T20:15:04.075Z,1.70
2018-01-10T20:17:31.750Z,2.17
2018-01-10T20:19:59.460Z,3.20
2018-01-10T20:22:27.119Z,2.60
2018-01-10T20:24:54.878Z,2.67
2018-01-10T20:27:23.473Z,2.20
2018-01-10T20:29:51.193Z,2.20
2018-01-10T20:32:19.618Z,2.50
2018-01-10T20:34:47.325Z,2.93
2018-01-10T20:37:15.754Z,2.27
2018-01-10T20:39:43.462Z,2.07
2018-01-10T20:42:11.895Z,2.40
2018-01-10T20:44:39.670Z,2.07
2018-01-10T20:47:07.375Z,1.80
2018-01-10T20:49:35.035Z,1.77
2018-01-10T20:52:02.940Z,1.77
2018-01-10T20:54:30.606Z,1.90
2018-01-10T20:56:58.321Z,2.30
2018-01-10T20:59:25.974Z,2.63
2018-01-10T21:01:54.402Z,2.40
2018-01-10T21:04:22.131Z,2.50
2018-01-10T21:06:49.855Z,2.47
2018-01-10T21:09:18.336Z,4.30
2018-01-10T21:11:46.756Z,3.47
2018-01-10T21:14:14.490Z,2.47
2018-01-10T21:16:42.150Z,2.60
2018-01-10T21:19:09.823Z,2.60
2018-01-10T21:21:37.534Z,3.33
2018-01-10T21:24:05.203Z,3.00
2018-01-10T21:26:32.948Z,2.80
2018-01-10T21:29:00.666Z,9.70
2018-01-10T21:31:28.378Z,9.57
2018-01-10T21:33:56.083Z,6.60
2018-01-10T21:36:23.740Z,3.43
2018-01-10T21:38:51.451Z,3.60
2018-01-10T21:41:20.615Z,3.10
2018-01-10T21:43:48.423Z,2.80
2018-01-10T21:46:16.843Z,3.70
2018-01-10T21:48:44.561Z,3.60
2018-01-10T21:51:12.988Z,3.80
2018-01-10T21:53:40.695Z,5.60
2018-01-10T21:56:08.351Z,4.50
2018-01-10T21:58:36.071Z,3.40
2018-01-10T22:01:03.738Z,3.87
2018-01-10T22:03:31.462Z,3.40
2018-01-10T22:05:59.115Z,3.33
2018-01-10T22:08:26.840Z,3.50
2018-01-10T22:10:54.499Z,3.23
2018-01-10T22:13:22.219Z,4.00
2018-01-10T22:15:49.936Z,3.63
2018-01-10T22:18:17.599Z,4.20
2018-01-10T22:20:45.355Z,3.57
2018-01-10T22:23:13.011Z,3.67
2018-01-10T22:25:40.727Z,3.83
2018-01-10T22:28:08.387Z,3.93
2018-01-10T22:30:36.119Z,3.53
2018-01-10T22:33:03.822Z,3.60
2018-01-10T22:35:32.150Z,4.07
2018-01-10T22:38:00.636Z,3.20
2018-01-10T22:40:28.345Z,3.93
2018-01-10T22:42:56.000Z,3.73
2018-01-10T22:45:23.765Z,3.90
2018-01-10T22:47:51.409Z,4.20
2018-01-10T22:50:19.167Z,3.57
2018-01-10T22:52:47.026Z,4.30
2018-01-10T22:55:14.782Z,4.60
2018-01-10T22:57:42.495Z,4.00
2018-01-10T23:00:10.350Z,5.40
2018-01-10T23:02:38.302Z,5.30
2018-01-10T23:05:06.002Z,5.43
2018-01-10T23:07:34.067Z,5.63
2018-01-10T23:10:02.482Z,6.10
2018-01-10T23:12:30.204Z,6.10
2018-01-10T23:14:58.626Z,5.70
2018-01-10T23:17:26.528Z,5.60
2018-01-10T23:19:54.688Z,5.70
2018-01-10T23:22:22.414Z,5.50
2018-01-10T23:24:50.125Z,5.03
2018-01-10T23:27:17.778Z,5.40
2018-01-10T23:29:45.501Z,5.23
2018-01-10T23:32:13.235Z,4.53
2018-01-10T23:34:40.906Z,5.00
2018-01-10T23:37:08.726Z,4.97
2018-01-10T23:39:36.569Z,4.73
2018-01-10T23:42:04.218Z,4.83
2018-01-10T23:44:32.079Z,4.13
2018-01-10T23:47:00.033Z,4.17
2018-01-10T23:49:27.857Z,4.63
2018-01-10T23:51:56.354Z,4.40
2018-01-10T23:54:24.027Z,3.93
2018-01-10T23:56:51.735Z,4.30
2018-01-10T23:59:19.391Z,4.20
